Meridien — FT2092 — position and weather

sailwx.info

Track history (hours):
 
Tides and Currents Weather Stations Pressure Air Temp Water Temp Dewpoint Dewpoint Depression Visibility Wind Speed Wind Dir Waves Ship Positions

Meridien

Last reported at 2014-Dec-18 10:31 UTC. Time now 2014-Dec-19 13:40 UTC.
Position N 43°20' E 004°58'.

Length 21 m.

MMSI: 227321780.

Date/timePositionNaut miles runAvg speedWind from/ knotsBaromVisibWave heightAir tempDewpointWater temp
2014-Dec-18 10:31N 43°20' E 004°58'1 0.3
2014-Dec-18 07:32N 43°20' E 004°59'4 0.3
2014-Dec-17 14:14N 43°24' E 004°60'5 2.8
2014-Dec-17 12:27N 43°20' E 004°56'2 0.5
2014-Dec-17 08:26N 43°20' E 004°59'1 0.7
2014-Dec-17 07:32N 43°20' E 004°60'2 0.1
2014-Dec-16 12:33N 43°20' E 004°57'1 0.4
2014-Dec-16 09:16N 43°19' E 004°57'2 0.3
2014-Dec-16 03:31N 43°19' E 004°55'  
2014-Dec-12 08:27N 43°24' E 004°60'5 5.0
2014-Dec-12 07:25N 43°20' E 004°56'1 0.9
2014-Dec-12 06:32N 43°20' E 004°57'1 0.1
2014-Dec-11 13:33N 43°21' E 004°56'2 1.7
2014-Dec-11 12:33N 43°20' E 004°56'1 0.7
2014-Dec-11 11:18N 43°20' E 004°57'2 2.1
2014-Dec-11 10:31N 43°19' E 004°55'0 0.5
2014-Dec-11 09:33N 43°19' E 004°55'4 3.2
2014-Dec-11 08:23N 43°20' E 004°59'4 4.2
2014-Dec-11 07:31N 43°19' E 004°54'6 1.2
2014-Dec-11 02:06N 43°24' E 004°60'0 0.0
2014-Dec-10 17:18N 43°24' E 004°60'0 0.0
2014-Dec-10 16:33N 43°24' E 004°60'0 0.0
2014-Dec-10 15:33N 43°24' E 004°60'0 0.0
2014-Dec-10 14:33N 43°24' E 004°60'5 4.7
2014-Dec-10 13:33N 43°20' E 004°59'2 1.1
2014-Dec-10 12:07N 43°20' E 004°57'0 0.0
2014-Dec-10 08:06N 43°20' E 004°57'3 1.8
2014-Dec-10 06:33N 43°20' E 005°00'  
Track history (hours):
 
Tides and Currents Weather Stations Pressure Air Temp Water Temp Dewpoint Dewpoint Depression Visibility Wind Speed Wind Dir Waves Ship Positions

Meridien

Last reported at 2014-Dec-18 10:31 UTC. Time now 2014-Dec-19 13:40 UTC.
Position N 43°20' E 004°58'.

Length 21 m.

MMSI: 227321780.

Date/timePositionNaut miles runAvg speedWind from/ knotsBaromVisibWave heightAir tempDewpointWater temp
2014-Dec-18 10:31N 43°20' E 004°58'1 0.3
2014-Dec-18 07:32N 43°20' E 004°59'4 0.3
2014-Dec-17 14:14N 43°24' E 004°60'5 2.8
2014-Dec-17 12:27N 43°20' E 004°56'2 0.5
2014-Dec-17 08:26N 43°20' E 004°59'1 0.7
2014-Dec-17 07:32N 43°20' E 004°60'2 0.1
2014-Dec-16 12:33N 43°20' E 004°57'1 0.4
2014-Dec-16 09:16N 43°19' E 004°57'2 0.3
2014-Dec-16 03:31N 43°19' E 004°55'  
2014-Dec-12 08:27N 43°24' E 004°60'5 5.0
2014-Dec-12 07:25N 43°20' E 004°56'1 0.9
2014-Dec-12 06:32N 43°20' E 004°57'1 0.1
2014-Dec-11 13:33N 43°21' E 004°56'2 1.7
2014-Dec-11 12:33N 43°20' E 004°56'1 0.7
2014-Dec-11 11:18N 43°20' E 004°57'2 2.1
2014-Dec-11 10:31N 43°19' E 004°55'0 0.5
2014-Dec-11 09:33N 43°19' E 004°55'4 3.2
2014-Dec-11 08:23N 43°20' E 004°59'4 4.2
2014-Dec-11 07:31N 43°19' E 004°54'6 1.2
2014-Dec-11 02:06N 43°24' E 004°60'0 0.0
2014-Dec-10 17:18N 43°24' E 004°60'0 0.0
2014-Dec-10 16:33N 43°24' E 004°60'0 0.0
2014-Dec-10 15:33N 43°24' E 004°60'0 0.0
2014-Dec-10 14:33N 43°24' E 004°60'5 4.7
2014-Dec-10 13:33N 43°20' E 004°59'2 1.1
2014-Dec-10 12:07N 43°20' E 004°57'0 0.0
2014-Dec-10 08:06N 43°20' E 004°57'3 1.8
2014-Dec-10 06:33N 43°20' E 005°00'  

Dump ship's entire track history